sensor_id;sensor_type;location;lat;lon;timestamp;pressure;altitude;pressure_sealevel;temperature;humidity
3434;BME280;1730;41.932;25.548;2024-01-16T00:01:58;98021.84;;;4.56;100.00
3434;BME280;1730;41.932;25.548;2024-01-16T00:04:23;98037.50;;;4.69;100.00
3434;BME280;1730;41.932;25.548;2024-01-16T00:06:56;97978.12;;;4.75;100.00
3434;BME280;1730;41.932;25.548;2024-01-16T00:09:22;97993.97;;;4.86;100.00
3434;BME280;1730;41.932;25.548;2024-01-16T00:11:48;97986.22;;;4.65;100.00
3434;BME280;1730;41.932;25.548;2024-01-16T00:14:14;97989.00;;;4.73;100.00
3434;BME280;1730;41.932;25.548;2024-01-16T00:16:47;97975.53;;;4.65;100.00
3434;BME280;1730;41.932;25.548;2024-01-16T00:19:17;97994.22;;;4.65;100.00
3434;BME280;1730;41.932;25.548;2024-01-16T00:21:44;97998.31;;;4.42;100.00
3434;BME280;1730;41.932;25.548;2024-01-16T00:24:16;98005.00;;;4.73;100.00
3434;BME280;1730;41.932;25.548;2024-01-16T00:26:42;97986.69;;;4.78;100.00
3434;BME280;1730;41.932;25.548;2024-01-16T00:29:08;97977.22;;;4.66;100.00
3434;BME280;1730;41.932;25.548;2024-01-16T00:31:41;97986.69;;;4.78;100.00
3434;BME280;1730;41.932;25.548;2024-01-16T00:34:10;98013.28;;;4.70;100.00
3434;BME280;1730;41.932;25.548;2024-01-16T00:36:35;97986.59;;;4.70;100.00
3434;BME280;1730;41.932;25.548;2024-01-16T00:39:01;98011.06;;;4.66;100.00
3434;BME280;1730;41.932;25.548;2024-01-16T00:41:28;98008.25;;;4.67;100.00
3434;BME280;1730;41.932;25.548;2024-01-16T00:43:54;97993.09;;;4.68;100.00
3434;BME280;1730;41.932;25.548;2024-01-16T00:46:20;97991.53;;;4.65;100.00
3434;BME280;1730;41.932;25.548;2024-01-16T00:48:46;98032.69;;;4.72;100.00
3434;BME280;1730;41.932;25.548;2024-01-16T00:51:12;98023.44;;;4.67;100.00
3434;BME280;1730;41.932;25.548;2024-01-16T00:53:42;98024.75;;;4.80;100.00
3434;BME280;1730;41.932;25.548;2024-01-16T00:56:07;97994.34;;;4.73;100.00
3434;BME280;1730;41.932;25.548;2024-01-16T00:58:34;98015.06;;;4.79;100.00
3434;BME280;1730;41.932;25.548;2024-01-16T01:01:00;98006.31;;;4.87;100.00
3434;BME280;1730;41.932;25.548;2024-01-16T01:03:26;97986.06;;;4.67;100.00
3434;BME280;1730;41.932;25.548;2024-01-16T01:05:51;98004.44;;;4.70;100.00
3434;BME280;1730;41.932;25.548;2024-01-16T01:08:17;97982.63;;;4.74;100.00
3434;BME280;1730;41.932;25.548;2024-01-16T01:10:43;97960.44;;;4.56;100.00
3434;BME280;1730;41.932;25.548;2024-01-16T01:13:09;97978.44;;;4.54;100.00
3434;BME280;1730;41.932;25.548;2024-01-16T01:15:34;97954.66;;;4.61;100.00
3434;BME280;1730;41.932;25.548;2024-01-16T01:18:00;97953.94;;;4.59;100.00
3434;BME280;1730;41.932;25.548;2024-01-16T01:20:26;97976.19;;;4.49;100.00
3434;BME280;1730;41.932;25.548;2024-01-16T01:22:52;97962.66;;;4.61;100.00
3434;BME280;1730;41.932;25.548;2024-01-16T01:25:19;97956.31;;;4.62;100.00
3434;BME280;1730;41.932;25.548;2024-01-16T01:27:45;97978.03;;;4.49;100.00
3434;BME280;1730;41.932;25.548;2024-01-16T01:30:12;97976.91;;;4.24;100.00
3434;BME280;1730;41.932;25.548;2024-01-16T01:32:38;97996.44;;;4.25;100.00
3434;BME280;1730;41.932;25.548;2024-01-16T01:35:05;97981.31;;;4.16;100.00
3434;BME280;1730;41.932;25.548;2024-01-16T01:37:31;97990.66;;;4.29;100.00
3434;BME280;1730;41.932;25.548;2024-01-16T01:39:56;98001.47;;;4.28;100.00
3434;BME280;1730;41.932;25.548;2024-01-16T01:42:22;98002.84;;;4.32;100.00
3434;BME280;1730;41.932;25.548;2024-01-16T01:44:48;98016.69;;;4.45;100.00
3434;BME280;1730;41.932;25.548;2024-01-16T01:47:14;98023.66;;;4.28;100.00
3434;BME280;1730;41.932;25.548;2024-01-16T01:49:42;98038.59;;;4.39;100.00
3434;BME280;1730;41.932;25.548;2024-01-16T01:52:08;98052.50;;;4.42;100.00
3434;BME280;1730;41.932;25.548;2024-01-16T01:54:37;98019.66;;;4.42;100.00
3434;BME280;1730;41.932;25.548;2024-01-16T01:57:05;97996.37;;;4.34;100.00
3434;BME280;1730;41.932;25.548;2024-01-16T01:59:32;98013.88;;;4.46;100.00
3434;BME280;1730;41.932;25.548;2024-01-16T02:01:58;98019.59;;;4.51;100.00
3434;BME280;1730;41.932;25.548;2024-01-16T02:04:24;97980.50;;;4.60;100.00
3434;BME280;1730;41.932;25.548;2024-01-16T02:06:51;97961.47;;;4.45;100.00
3434;BME280;1730;41.932;25.548;2024-01-16T02:09:17;97956.66;;;4.31;100.00
3434;BME280;1730;41.932;25.548;2024-01-16T02:11:43;97974.78;;;4.28;100.00
3434;BME280;1730;41.932;25.548;2024-01-16T02:14:09;97972.66;;;4.31;100.00
3434;BME280;1730;41.932;25.548;2024-01-16T02:16:37;97973.34;;;4.33;100.00
3434;BME280;1730;41.932;25.548;2024-01-16T02:19:06;97960.78;;;4.43;100.00
3434;BME280;1730;41.932;25.548;2024-01-16T02:21:41;97961.53;;;4.36;100.00
3434;BME280;1730;41.932;25.548;2024-01-16T02:24:08;97992.22;;;4.22;100.00
3434;BME280;1730;41.932;25.548;2024-01-16T02:26:34;97982.03;;;4.08;100.00
3434;BME280;1730;41.932;25.548;2024-01-16T02:29:01;98002.97;;;4.03;100.00
3434;BME280;1730;41.932;25.548;2024-01-16T02:31:28;98029.22;;;3.98;100.00
3434;BME280;1730;41.932;25.548;2024-01-16T02:33:53;98054.31;;;4.05;100.00
3434;BME280;1730;41.932;25.548;2024-01-16T02:36:19;98047.28;;;4.04;100.00
3434;BME280;1730;41.932;25.548;2024-01-16T02:38:46;98067.53;;;3.97;100.00
3434;BME280;1730;41.932;25.548;2024-01-16T02:41:14;98085.09;;;3.90;100.00
3434;BME280;1730;41.932;25.548;2024-01-16T02:43:42;98098.44;;;3.90;100.00
3434;BME280;1730;41.932;25.548;2024-01-16T02:46:07;98111.03;;;3.97;100.00
3434;BME280;1730;41.932;25.548;2024-01-16T02:48:36;98123.25;;;4.00;100.00
3434;BME280;1730;41.932;25.548;2024-01-16T02:51:03;98105.72;;;3.88;100.00
3434;BME280;1730;41.932;25.548;2024-01-16T02:53:31;98124.94;;;3.91;100.00
3434;BME280;1730;41.932;25.548;2024-01-16T02:55:57;98093.66;;;3.93;100.00
3434;BME280;1730;41.932;25.548;2024-01-16T02:58:27;98110.37;;;3.86;100.00
3434;BME280;1730;41.932;25.548;2024-01-16T03:00:53;97959.84;;;3.14;100.00
3434;BME280;1730;41.932;25.548;2024-01-16T03:03:20;98071.72;;;3.99;100.00
3434;BME280;1730;41.932;25.548;2024-01-16T03:05:48;98065.63;;;3.80;100.00
3434;BME280;1730;41.932;25.548;2024-01-16T03:08:15;98070.78;;;3.91;100.00
3434;BME280;1730;41.932;25.548;2024-01-16T03:10:41;98065.31;;;3.73;100.00
3434;BME280;1730;41.932;25.548;2024-01-16T03:13:09;98064.91;;;3.78;100.00
3434;BME280;1730;41.932;25.548;2024-01-16T03:15:34;98080.50;;;3.73;100.00
3434;BME280;1730;41.932;25.548;2024-01-16T03:18:03;98056.09;;;3.68;100.00
3434;BME280;1730;41.932;25.548;2024-01-16T03:20:32;98078.28;;;3.58;100.00
3434;BME280;1730;41.932;25.548;2024-01-16T03:22:57;98066.75;;;3.39;100.00
3434;BME280;1730;41.932;25.548;2024-01-16T03:25:23;98066.06;;;3.56;100.00
3434;BME280;1730;41.932;25.548;2024-01-16T03:27:49;98087.53;;;3.45;100.00
3434;BME280;1730;41.932;25.548;2024-01-16T03:30:15;98087.94;;;3.50;100.00
3434;BME280;1730;41.932;25.548;2024-01-16T03:32:40;98078.13;;;3.22;100.00
3434;BME280;1730;41.932;25.548;2024-01-16T03:35:07;98095.09;;;3.30;100.00
3434;BME280;1730;41.932;25.548;2024-01-16T03:37:33;98133.25;;;3.50;100.00
3434;BME280;1730;41.932;25.548;2024-01-16T03:40:00;98104.06;;;3.39;100.00
3434;BME280;1730;41.932;25.548;2024-01-16T03:42:26;98100.41;;;3.40;100.00
3434;BME280;1730;41.932;25.548;2024-01-16T03:44:52;98101.41;;;3.39;100.00
3434;BME280;1730;41.932;25.548;2024-01-16T03:47:18;98119.06;;;3.30;100.00
3434;BME280;1730;41.932;25.548;2024-01-16T03:49:43;98102.06;;;3.12;100.00
3434;BME280;1730;41.932;25.548;2024-01-16T03:52:09;98113.69;;;3.01;100.00
3434;BME280;1730;41.932;25.548;2024-01-16T03:54:35;98127.28;;;3.08;100.00
3434;BME280;1730;41.932;25.548;2024-01-16T03:57:00;98173.41;;;3.08;100.00
3434;BME280;1730;41.932;25.548;2024-01-16T03:59:26;98147.34;;;3.22;100.00
3434;BME280;1730;41.932;25.548;2024-01-16T04:01:52;98151.59;;;3.24;100.00
3434;BME280;1730;41.932;25.548;2024-01-16T04:04:18;98184.22;;;3.26;100.00
3434;BME280;1730;41.932;25.548;2024-01-16T04:06:44;98183.19;;;2.98;100.00
3434;BME280;1730;41.932;25.548;2024-01-16T04:09:11;98211.59;;;2.88;100.00
3434;BME280;1730;41.932;25.548;2024-01-16T04:11:36;98209.78;;;2.89;100.00
3434;BME280;1730;41.932;25.548;2024-01-16T04:14:02;98211.13;;;2.83;100.00
3434;BME280;1730;41.932;25.548;2024-01-16T04:16:28;98250.22;;;2.83;100.00
3434;BME280;1730;41.932;25.548;2024-01-16T04:18:54;98243.69;;;2.96;100.00
3434;BME280;1730;41.932;25.548;2024-01-16T04:21:19;98272.88;;;2.98;100.00
3434;BME280;1730;41.932;25.548;2024-01-16T04:23:45;98260.97;;;3.02;100.00
3434;BME280;1730;41.932;25.548;2024-01-16T04:26:11;98294.34;;;3.06;100.00
3434;BME280;1730;41.932;25.548;2024-01-16T04:28:37;98254.44;;;3.25;100.00
3434;BME280;1730;41.932;25.548;2024-01-16T04:31:03;98219.41;;;3.20;100.00
3434;BME280;1730;41.932;25.548;2024-01-16T04:33:29;98063.47;;;2.28;100.00
3434;BME280;1730;41.932;25.548;2024-01-16T04:35:56;98194.84;;;3.07;100.00
3434;BME280;1730;41.932;25.548;2024-01-16T04:38:22;98196.25;;;3.11;100.00
3434;BME280;1730;41.932;25.548;2024-01-16T04:40:47;98199.97;;;2.99;100.00
3434;BME280;1730;41.932;25.548;2024-01-16T04:43:13;98215.56;;;3.03;100.00
3434;BME280;1730;41.932;25.548;2024-01-16T04:45:39;98248.69;;;2.90;100.00
3434;BME280;1730;41.932;25.548;2024-01-16T04:48:05;98246.38;;;2.96;100.00
3434;BME280;1730;41.932;25.548;2024-01-16T04:50:39;98260.91;;;2.92;100.00
3434;BME280;1730;41.932;25.548;2024-01-16T04:53:10;98299.25;;;2.80;100.00
3434;BME280;1730;41.932;25.548;2024-01-16T04:56:04;98073.06;;;1.48;100.00
3434;BME280;1730;41.932;25.548;2024-01-16T04:58:31;98321.31;;;2.71;100.00
3434;BME280;1730;41.932;25.548;2024-01-16T05:00:56;98309.87;;;2.59;100.00
3434;BME280;1730;41.932;25.548;2024-01-16T05:03:24;98353.38;;;2.69;100.00
3434;BME280;1730;41.932;25.548;2024-01-16T05:05:50;98377.31;;;2.90;100.00
3434;BME280;1730;41.932;25.548;2024-01-16T05:08:16;98358.50;;;2.61;100.00
3434;BME280;1730;41.932;25.548;2024-01-16T05:10:43;98384.25;;;2.82;100.00
3434;BME280;1730;41.932;25.548;2024-01-16T05:13:10;98368.63;;;3.09;100.00
3434;BME280;1730;41.932;25.548;2024-01-16T05:15:40;98356.19;;;2.89;100.00
3434;BME280;1730;41.932;25.548;2024-01-16T05:18:06;98343.56;;;2.49;100.00
3434;BME280;1730;41.932;25.548;2024-01-16T05:23:12;98388.78;;;2.49;100.00
3434;BME280;1730;41.932;25.548;2024-01-16T05:25:40;98446.37;;;2.39;100.00
3434;BME280;1730;41.932;25.548;2024-01-16T05:28:06;98442.00;;;2.38;100.00
3434;BME280;1730;41.932;25.548;2024-01-16T05:30:33;97891.34;;;-1.28;100.00
3434;BME280;1730;41.932;25.548;2024-01-16T05:33:03;97734.34;;;-2.53;100.00
3434;BME280;1730;41.932;25.548;2024-01-16T05:35:32;98514.56;;;2.29;100.00
3434;BME280;1730;41.932;25.548;2024-01-16T05:37:59;98541.16;;;2.18;100.00
3434;BME280;1730;41.932;25.548;2024-01-16T05:40:25;98595.06;;;2.31;100.00
3434;BME280;1730;41.932;25.548;2024-01-16T05:42:52;98351.75;;;0.94;100.00
3434;BME280;1730;41.932;25.548;2024-01-16T05:45:18;98609.94;;;2.45;100.00
3434;BME280;1730;41.932;25.548;2024-01-16T05:47:44;98624.09;;;2.67;100.00
3434;BME280;1730;41.932;25.548;2024-01-16T05:50:12;98607.50;;;2.64;100.00
3434;BME280;1730;41.932;25.548;2024-01-16T05:52:38;98648.16;;;2.66;100.00
3434;BME280;1730;41.932;25.548;2024-01-16T05:55:07;98653.84;;;2.61;100.00
3434;BME280;1730;41.932;25.548;2024-01-16T05:57:33;98618.53;;;2.48;100.00
3434;BME280;1730;41.932;25.548;2024-01-16T06:00:00;98663.66;;;2.72;100.00
3434;BME280;1730;41.932;25.548;2024-01-16T06:02:29;98639.91;;;2.91;100.00
3434;BME280;1730;41.932;25.548;2024-01-16T06:04:56;98626.12;;;2.64;100.00
3434;BME280;1730;41.932;25.548;2024-01-16T06:07:22;98664.97;;;2.89;100.00
3434;BME280;1730;41.932;25.548;2024-01-16T06:09:49;98648.28;;;2.76;100.00
3434;BME280;1730;41.932;25.548;2024-01-16T06:12:15;98672.06;;;2.99;100.00
3434;BME280;1730;41.932;25.548;2024-01-16T06:14:42;98676.06;;;3.05;100.00
3434;BME280;1730;41.932;25.548;2024-01-16T06:17:09;98662.16;;;3.01;100.00
3434;BME280;1730;41.932;25.548;2024-01-16T06:19:34;98613.81;;;3.28;100.00
3434;BME280;1730;41.932;25.548;2024-01-16T06:22:00;98580.84;;;3.29;100.00
3434;BME280;1730;41.932;25.548;2024-01-16T06:24:26;98538.78;;;3.12;100.00
3434;BME280;1730;41.932;25.548;2024-01-16T06:26:52;98522.75;;;3.02;100.00
3434;BME280;1730;41.932;25.548;2024-01-16T06:29:18;98535.53;;;3.08;100.00
3434;BME280;1730;41.932;25.548;2024-01-16T06:31:48;98533.31;;;3.45;100.00
3434;BME280;1730;41.932;25.548;2024-01-16T06:34:15;98518.69;;;3.40;100.00
3434;BME280;1730;41.932;25.548;2024-01-16T06:36:42;98498.66;;;3.66;100.00
3434;BME280;1730;41.932;25.548;2024-01-16T06:39:10;98494.09;;;3.78;100.00
3434;BME280;1730;41.932;25.548;2024-01-16T06:41:41;98461.44;;;3.85;100.00
3434;BME280;1730;41.932;25.548;2024-01-16T06:44:09;98432.97;;;3.95;100.00
3434;BME280;1730;41.932;25.548;2024-01-16T06:46:35;98406.56;;;4.32;100.00
3434;BME280;1730;41.932;25.548;2024-01-16T06:49:02;98368.31;;;4.03;100.00
3434;BME280;1730;41.932;25.548;2024-01-16T06:51:28;98360.09;;;4.25;100.00
3434;BME280;1730;41.932;25.548;2024-01-16T06:53:54;98341.69;;;4.32;100.00
3434;BME280;1730;41.932;25.548;2024-01-16T06:56:20;97585.31;;;0.11;100.00
3434;BME280;1730;41.932;25.548;2024-01-16T06:58:46;98309.63;;;4.80;100.00
3434;BME280;1730;41.932;25.548;2024-01-16T07:01:19;98292.09;;;4.68;100.00
3434;BME280;1730;41.932;25.548;2024-01-16T07:03:50;97803.41;;;1.74;100.00
3434;BME280;1730;41.932;25.548;2024-01-16T07:06:38;97672.78;;;0.81;100.00
3434;BME280;1730;41.932;25.548;2024-01-16T07:09:04;98307.03;;;5.07;100.00
3434;BME280;1730;41.932;25.548;2024-01-16T07:11:37;98298.97;;;5.26;100.00
3434;BME280;1730;41.932;25.548;2024-01-16T07:14:03;98250.63;;;5.47;100.00
3434;BME280;1730;41.932;25.548;2024-01-16T07:16:34;98236.72;;;5.88;100.00
3434;BME280;1730;41.932;25.548;2024-01-16T07:19:01;98231.94;;;6.10;100.00
3434;BME280;1730;41.932;25.548;2024-01-16T07:21:27;98250.53;;;6.55;100.00
3434;BME280;1730;41.932;25.548;2024-01-16T07:23:54;98261.19;;;6.90;100.00
3434;BME280;1730;41.932;25.548;2024-01-16T07:26:25;98214.84;;;6.98;100.00
3434;BME280;1730;41.932;25.548;2024-01-16T07:28:51;98240.81;;;6.97;100.00
3434;BME280;1730;41.932;25.548;2024-01-16T07:31:18;98219.34;;;7.23;100.00
3434;BME280;1730;41.932;25.548;2024-01-16T07:33:45;98225.56;;;7.23;100.00
3434;BME280;1730;41.932;25.548;2024-01-16T07:36:13;98258.53;;;7.50;100.00
3434;BME280;1730;41.932;25.548;2024-01-16T07:38:42;98239.06;;;7.48;100.00
3434;BME280;1730;41.932;25.548;2024-01-16T07:41:07;98255.28;;;7.46;100.00
3434;BME280;1730;41.932;25.548;2024-01-16T07:43:33;98242.34;;;7.76;100.00
3434;BME280;1730;41.932;25.548;2024-01-16T07:46:00;98266.06;;;8.21;100.00
3434;BME280;1730;41.932;25.548;2024-01-16T07:48:28;98278.84;;;8.27;100.00
3434;BME280;1730;41.932;25.548;2024-01-16T07:50:54;98292.34;;;8.43;100.00
3434;BME280;1730;41.932;25.548;2024-01-16T07:53:31;98283.28;;;8.44;100.00
3434;BME280;1730;41.932;25.548;2024-01-16T07:55:59;98268.19;;;8.67;100.00
3434;BME280;1730;41.932;25.548;2024-01-16T07:58:30;98328.19;;;8.26;100.00
3434;BME280;1730;41.932;25.548;2024-01-16T08:00:56;97803.38;;;5.38;100.00
3434;BME280;1730;41.932;25.548;2024-01-16T08:03:23;98297.56;;;8.60;100.00
3434;BME280;1730;41.932;25.548;2024-01-16T08:05:50;98301.25;;;8.92;100.00
3434;BME280;1730;41.932;25.548;2024-01-16T08:08:22;98299.06;;;8.87;100.00
3434;BME280;1730;41.932;25.548;2024-01-16T08:10:48;98322.56;;;9.18;100.00
3434;BME280;1730;41.932;25.548;2024-01-16T08:13:14;98313.53;;;8.94;100.00
3434;BME280;1730;41.932;25.548;2024-01-16T08:15:40;98312.66;;;8.78;100.00
3434;BME280;1730;41.932;25.548;2024-01-16T08:18:06;98224.81;;;8.22;100.00
3434;BME280;1730;41.932;25.548;2024-01-16T08:20:37;98329.97;;;8.83;100.00
3434;BME280;1730;41.932;25.548;2024-01-16T08:23:04;97746.88;;;5.33;100.00
3434;BME280;1730;41.932;25.548;2024-01-16T08:25:31;98337.88;;;8.93;100.00
3434;BME280;1730;41.932;25.548;2024-01-16T08:27:57;98374.00;;;9.07;100.00
3434;BME280;1730;41.932;25.548;2024-01-16T08:30:25;98355.69;;;8.94;100.00
3434;BME280;1730;41.932;25.548;2024-01-16T08:32:54;98361.22;;;8.76;100.00
3434;BME280;1730;41.932;25.548;2024-01-16T08:35:20;98379.56;;;8.89;100.00
3434;BME280;1730;41.932;25.548;2024-01-16T08:37:47;97812.03;;;5.40;100.00
3434;BME280;1730;41.932;25.548;2024-01-16T08:40:13;98398.19;;;8.82;100.00
3434;BME280;1730;41.932;25.548;2024-01-16T08:42:43;98237.22;;;7.48;100.00
3434;BME280;1730;41.932;25.548;2024-01-16T08:45:09;98403.00;;;8.54;100.00
3434;BME280;1730;41.932;25.548;2024-01-16T08:47:35;98407.06;;;8.58;100.00
3434;BME280;1730;41.932;25.548;2024-01-16T08:50:01;98228.13;;;7.07;100.00
3434;BME280;1730;41.932;25.548;2024-01-16T08:52:27;98415.22;;;8.33;100.00
3434;BME280;1730;41.932;25.548;2024-01-16T08:54:53;98134.22;;;6.49;100.00
3434;BME280;1730;41.932;25.548;2024-01-16T08:57:18;98432.69;;;8.45;100.00
3434;BME280;1730;41.932;25.548;2024-01-16T09:02:19;98440.00;;;8.69;100.00
3434;BME280;1730;41.932;25.548;2024-01-16T09:04:46;98444.56;;;8.76;100.00
3434;BME280;1730;41.932;25.548;2024-01-16T09:07:13;98443.00;;;8.66;100.00
3434;BME280;1730;41.932;25.548;2024-01-16T09:09:43;98459.69;;;8.77;100.00
3434;BME280;1730;41.932;25.548;2024-01-16T09:12:10;98469.72;;;8.67;100.00
3434;BME280;1730;41.932;25.548;2024-01-16T09:14:39;98447.41;;;8.83;100.00
3434;BME280;1730;41.932;25.548;2024-01-16T09:17:07;98447.81;;;9.20;100.00
3434;BME280;1730;41.932;25.548;2024-01-16T09:19:44;98444.78;;;9.31;100.00
3434;BME280;1730;41.932;25.548;2024-01-16T09:22:12;98462.44;;;9.58;100.00
3434;BME280;1730;41.932;25.548;2024-01-16T09:24:41;98467.28;;;9.95;100.00
3434;BME280;1730;41.932;25.548;2024-01-16T09:27:06;98456.16;;;9.90;100.00
3434;BME280;1730;41.932;25.548;2024-01-16T09:29:32;98460.94;;;9.56;100.00
3434;BME280;1730;41.932;25.548;2024-01-16T09:31:58;98345.75;;;8.70;100.00
3434;BME280;1730;41.932;25.548;2024-01-16T09:34:23;98501.75;;;9.19;100.00
3434;BME280;1730;41.932;25.548;2024-01-16T09:36:49;98502.25;;;9.30;100.00
3434;BME280;1730;41.932;25.548;2024-01-16T09:39:15;98337.34;;;8.57;100.00
3434;BME280;1730;41.932;25.548;2024-01-16T09:41:41;98499.09;;;9.43;100.00
3434;BME280;1730;41.932;25.548;2024-01-16T09:44:09;98503.47;;;9.44;100.00
3434;BME280;1730;41.932;25.548;2024-01-16T09:46:37;98511.72;;;9.50;100.00
3434;BME280;1730;41.932;25.548;2024-01-16T09:49:06;98513.56;;;9.66;100.00
3434;BME280;1730;41.932;25.548;2024-01-16T09:51:34;98525.84;;;9.77;100.00
3434;BME280;1730;41.932;25.548;2024-01-16T09:54:01;98525.31;;;9.57;100.00
3434;BME280;1730;41.932;25.548;2024-01-16T09:56:30;98552.09;;;9.75;100.00
3434;BME280;1730;41.932;25.548;2024-01-16T09:59:03;98540.13;;;9.61;100.00
3434;BME280;1730;41.932;25.548;2024-01-16T10:01:31;98537.47;;;9.69;100.00
3434;BME280;1730;41.932;25.548;2024-01-16T10:04:00;98520.28;;;9.54;100.00
3434;BME280;1730;41.932;25.548;2024-01-16T10:06:29;98528.88;;;9.82;100.00
3434;BME280;1730;41.932;25.548;2024-01-16T10:08:57;98528.19;;;9.72;100.00
3434;BME280;1730;41.932;25.548;2024-01-16T10:11:26;98527.34;;;9.79;100.00
3434;BME280;1730;41.932;25.548;2024-01-16T10:13:52;98517.41;;;9.88;100.00
3434;BME280;1730;41.932;25.548;2024-01-16T10:16:21;98533.56;;;9.96;100.00
3434;BME280;1730;41.932;25.548;2024-01-16T10:18:57;97900.53;;;5.89;100.00
3434;BME280;1730;41.932;25.548;2024-01-16T10:21:32;98338.06;;;9.08;100.00
3434;BME280;1730;41.932;25.548;2024-01-16T10:24:11;98317.88;;;9.12;100.00
3434;BME280;1730;41.932;25.548;2024-01-16T10:26:39;98542.16;;;10.71;100.00
3434;BME280;1730;41.932;25.548;2024-01-16T10:29:05;98404.50;;;9.94;100.00
3434;BME280;1730;41.932;25.548;2024-01-16T10:31:35;98354.09;;;9.64;100.00
3434;BME280;1730;41.932;25.548;2024-01-16T10:34:20;98528.03;;;10.69;100.00
3434;BME280;1730;41.932;25.548;2024-01-16T10:43:02;98510.81;;;11.09;100.00
3434;BME280;1730;41.932;25.548;2024-01-16T10:45:37;98580.75;;;10.71;100.00
3434;BME280;1730;41.932;25.548;2024-01-16T10:48:04;98508.19;;;10.93;100.00
3434;BME280;1730;41.932;25.548;2024-01-16T10:50:42;98493.69;;;11.47;100.00
3434;BME280;1730;41.932;25.548;2024-01-16T10:53:13;98176.66;;;9.24;100.00
3434;BME280;1730;41.932;25.548;2024-01-16T10:55:58;98492.84;;;10.93;100.00
3434;BME280;1730;41.932;25.548;2024-01-16T10:58:26;98218.09;;;8.90;100.00
3434;BME280;1730;41.932;25.548;2024-01-16T11:00:54;98505.69;;;10.91;100.00
3434;BME280;1730;41.932;25.548;2024-01-16T11:03:36;98351.59;;;10.18;100.00
3434;BME280;1730;41.932;25.548;2024-01-16T11:06:07;98214.84;;;9.58;100.00
3434;BME280;1730;41.932;25.548;2024-01-16T11:09:03;98513.19;;;11.35;100.00
3434;BME280;1730;41.932;25.548;2024-01-16T11:11:39;98516.72;;;11.35;100.00
3434;BME280;1730;41.932;25.548;2024-01-16T11:14:32;97980.59;;;7.65;100.00
3434;BME280;1730;41.932;25.548;2024-01-16T11:19:52;98526.62;;;11.43;100.00
3434;BME280;1730;41.932;25.548;2024-01-16T12:22:08;98603.38;;;11.48;100.00
3434;BME280;1730;41.932;25.548;2024-01-16T12:24:42;98596.59;;;11.52;100.00
3434;BME280;1730;41.932;25.548;2024-01-16T12:27:45;98314.44;;;9.50;100.00
3434;BME280;1730;41.932;25.548;2024-01-16T12:30:14;98525.88;;;10.64;100.00
3434;BME280;1730;41.932;25.548;2024-01-16T12:32:40;98590.75;;;11.41;100.00
3434;BME280;1730;41.932;25.548;2024-01-16T12:35:07;98530.28;;;10.96;100.00
3434;BME280;1730;41.932;25.548;2024-01-16T12:37:33;98520.31;;;10.58;100.00
3434;BME280;1730;41.932;25.548;2024-01-16T12:39:58;98693.38;;;11.24;100.00
3434;BME280;1730;41.932;25.548;2024-01-16T12:42:24;98488.09;;;10.72;100.00
3434;BME280;1730;41.932;25.548;2024-01-16T12:44:50;98595.97;;;11.42;100.00
3434;BME280;1730;41.932;25.548;2024-01-16T12:47:18;98629.91;;;11.37;100.00
3434;BME280;1730;41.932;25.548;2024-01-16T12:49:59;98621.25;;;11.49;100.00
3434;BME280;1730;41.932;25.548;2024-01-16T12:52:25;98498.59;;;10.59;99.29
3434;BME280;1730;41.932;25.548;2024-01-16T12:54:59;98631.31;;;11.24;97.48
3434;BME280;1730;41.932;25.548;2024-01-16T12:57:40;98634.97;;;11.70;98.08
3434;BME280;1730;41.932;25.548;2024-01-16T13:00:25;98641.59;;;11.60;95.96
3434;BME280;1730;41.932;25.548;2024-01-16T13:02:52;98501.50;;;10.42;94.69
3434;BME280;1730;41.932;25.548;2024-01-16T13:05:26;98659.59;;;11.37;94.71
3434;BME280;1730;41.932;25.548;2024-01-16T13:08:20;98669.28;;;11.62;95.51
3434;BME280;1730;41.932;25.548;2024-01-16T13:11:19;98663.66;;;11.41;93.78
3434;BME280;1730;41.932;25.548;2024-01-16T13:14:01;98670.66;;;11.50;95.11
3434;BME280;1730;41.932;25.548;2024-01-16T13:16:38;98677.44;;;11.46;92.92
3434;BME280;1730;41.932;25.548;2024-01-16T13:19:08;98691.66;;;11.40;93.44
3434;BME280;1730;41.932;25.548;2024-01-16T13:21:37;98718.66;;;11.79;92.63
3434;BME280;1730;41.932;25.548;2024-01-16T13:24:06;98703.44;;;11.39;93.08
3434;BME280;1730;41.932;25.548;2024-01-16T13:35:01;98712.03;;;11.42;92.54
3434;BME280;1730;41.932;25.548;2024-01-16T13:50:35;98739.84;;;10.88;89.61
3434;BME280;1730;41.932;25.548;2024-01-16T13:55:39;98749.75;;;11.11;91.65
3434;BME280;1730;41.932;25.548;2024-01-16T13:58:11;98757.16;;;11.17;91.85
3434;BME280;1730;41.932;25.548;2024-01-16T14:00:38;98748.88;;;11.27;93.77
3434;BME280;1730;41.932;25.548;2024-01-16T14:03:04;98686.94;;;10.78;93.83
3434;BME280;1730;41.932;25.548;2024-01-16T14:05:32;98782.66;;;10.91;92.18
3434;BME280;1730;41.932;25.548;2024-01-16T14:08:10;98775.75;;;10.88;91.70
3434;BME280;1730;41.932;25.548;2024-01-16T14:10:40;98780.81;;;10.83;92.22
3434;BME280;1730;41.932;25.548;2024-01-16T14:13:06;98799.50;;;10.68;92.82
3434;BME280;1730;41.932;25.548;2024-01-16T14:15:32;98554.06;;;9.32;93.52
3434;BME280;1730;41.932;25.548;2024-01-16T14:17:58;98787.56;;;10.87;93.67
3434;BME280;1730;41.932;25.548;2024-01-16T14:20:28;98790.06;;;10.80;93.89
3434;BME280;1730;41.932;25.548;2024-01-16T14:22:55;98526.09;;;9.09;94.10
3434;BME280;1730;41.932;25.548;2024-01-16T14:25:22;98800.84;;;10.72;93.61
3434;BME280;1730;41.932;25.548;2024-01-16T14:27:59;98803.72;;;10.87;92.49
3434;BME280;1730;41.932;25.548;2024-01-16T14:30:29;98818.38;;;10.76;92.09
3434;BME280;1730;41.932;25.548;2024-01-16T14:32:55;98814.34;;;10.64;91.87
3434;BME280;1730;41.932;25.548;2024-01-16T14:35:22;98815.00;;;10.66;91.27
3434;BME280;1730;41.932;25.548;2024-01-16T14:37:50;98819.03;;;10.62;91.39
3434;BME280;1730;41.932;25.548;2024-01-16T14:40:20;98847.53;;;10.57;91.71
3434;BME280;1730;41.932;25.548;2024-01-16T14:42:52;98832.72;;;10.77;92.20
3434;BME280;1730;41.932;25.548;2024-01-16T14:45:20;98832.00;;;10.59;92.58
3434;BME280;1730;41.932;25.548;2024-01-16T14:47:46;98829.31;;;10.51;92.14
3434;BME280;1730;41.932;25.548;2024-01-16T14:50:12;98840.78;;;10.53;92.60
3434;BME280;1730;41.932;25.548;2024-01-16T14:52:40;98271.47;;;6.77;92.73
3434;BME280;1730;41.932;25.548;2024-01-16T14:55:06;98667.78;;;9.09;92.89